CWRX

Rowley Island Airport

Canada
METAR CWRX 190300Z AUTO 17022G29KT ////SM //// OVC003 00/00 A2994
Observed Flight Rules
Sep-19 @ 03:00 UTC (55 minutes ago)
Wind Clouds
170° at 22 knots
 Gusting to 29 knots
  • Overcast at 300' AGL
Temperatures Readings
Current 0°C / 32°F
Dewpoint 0°C / 32°F
Humidity 100%
Altimeter 29.94" Hg
Pressure 1014 hPa
Elevation 41
METAR CWRX 190300Z AUTO 17022G29KT ////SM //// OVC003 00/00 A2994
Observed Flight Rules
Sep-19 @ 03:00 UTC
(55 minutes ago)
Wind
170° at 22 knots
 Gusting to 29 knots
Clouds
  • Overcast at 300' AGL
Temperature Dewpoint
0°C / 32°F 0°C / 32°F
Humidity Altimeter Pressure
100% 29.94" Hg 1014 hPa